createdAt,value
2023-05-16T00:00:05.868Z,10.69
2023-05-16T00:02:05.999Z,10.62
2023-05-16T00:03:04.188Z,10.62
2023-05-16T00:04:03.891Z,10.62
2023-05-16T00:05:03.771Z,10.62
2023-05-16T00:06:03.856Z,10.62
2023-05-16T00:07:03.532Z,10.62
2023-05-16T00:08:04.162Z,10.62
2023-05-16T00:10:04.149Z,10.56
2023-05-16T00:11:04.258Z,10.56
2023-05-16T00:12:04.317Z,10.56
2023-05-16T00:14:03.930Z,10.56
2023-05-16T00:15:03.658Z,10.56
2023-05-16T00:16:04.257Z,10.50
2023-05-16T00:17:03.827Z,10.50
2023-05-16T00:18:03.984Z,10.50
2023-05-16T00:19:03.780Z,10.50
2023-05-16T00:20:04.174Z,10.50
2023-05-16T00:21:04.167Z,10.44
2023-05-16T00:23:03.697Z,10.44
2023-05-16T00:24:04.237Z,10.38
2023-05-16T00:25:05.911Z,10.38
2023-05-16T00:27:03.958Z,10.38
2023-05-16T00:29:05.900Z,10.38
2023-05-16T00:31:05.920Z,10.31
2023-05-16T00:32:05.922Z,10.31
2023-05-16T00:33:03.795Z,10.31
2023-05-16T00:34:04.112Z,10.31
2023-05-16T00:35:03.845Z,10.31
2023-05-16T00:36:05.932Z,10.31
2023-05-16T00:38:05.913Z,10.25
2023-05-16T00:39:05.939Z,10.25
2023-05-16T00:41:04.346Z,10.25
2023-05-16T00:42:04.346Z,10.19
2023-05-16T00:43:03.622Z,10.19
2023-05-16T00:44:04.098Z,10.19
2023-05-16T00:45:03.947Z,10.19
2023-05-16T00:46:05.912Z,10.19
2023-05-16T00:47:05.911Z,10.12
2023-05-16T00:48:03.652Z,10.12
2023-05-16T00:49:04.108Z,10.12
2023-05-16T00:51:03.756Z,10.12
2023-05-16T00:52:04.329Z,10.12
2023-05-16T00:54:04.338Z,10.12
2023-05-16T00:55:03.457Z,10.12
2023-05-16T00:56:04.104Z,10.06
2023-05-16T00:58:04.207Z,10.06
2023-05-16T01:00:03.939Z,10.06
2023-05-16T01:01:04.192Z,10.00
2023-05-16T01:02:03.972Z,10.06
2023-05-16T01:03:03.988Z,10.00
2023-05-16T01:04:03.793Z,10.00
2023-05-16T01:05:03.536Z,10.00
2023-05-16T01:06:03.839Z,10.00
2023-05-16T01:08:03.443Z,10.00
2023-05-16T01:09:04.007Z,10.00
2023-05-16T01:10:03.810Z,10.00
2023-05-16T01:11:03.851Z,9.94
2023-05-16T01:12:05.913Z,9.94
2023-05-16T01:15:04.116Z,9.94
2023-05-16T01:16:04.145Z,9.94
2023-05-16T01:18:05.931Z,9.94
2023-05-16T01:19:03.546Z,9.94
2023-05-16T01:20:04.180Z,9.94
2023-05-16T01:21:03.899Z,9.94
2023-05-16T01:22:05.908Z,9.88
2023-05-16T01:23:05.898Z,9.88
2023-05-16T01:25:04.287Z,9.88
2023-05-16T01:26:03.804Z,9.88
2023-05-16T01:27:04.005Z,9.88
2023-05-16T01:29:03.708Z,9.88
2023-05-16T01:30:04.257Z,9.88
2023-05-16T01:32:03.969Z,9.88
2023-05-16T01:33:03.759Z,9.88
2023-05-16T01:36:04.266Z,9.88
2023-05-16T01:37:03.840Z,9.88
2023-05-16T01:39:04.406Z,9.94
2023-05-16T01:41:03.695Z,9.94
2023-05-16T01:42:04.253Z,9.94
2023-05-16T01:43:03.944Z,9.94
2023-05-16T01:44:05.975Z,9.88
2023-05-16T01:45:05.976Z,9.88
2023-05-16T01:46:04.407Z,9.88
2023-05-16T01:47:04.003Z,9.88
2023-05-16T01:48:03.730Z,9.94
2023-05-16T01:49:04.243Z,9.94
2023-05-16T01:52:03.540Z,9.94
2023-05-16T01:53:03.834Z,9.94
2023-05-16T01:55:03.539Z,10.00
2023-05-16T01:56:03.938Z,10.00
2023-05-16T01:58:04.164Z,10.00
2023-05-16T01:59:03.937Z,10.00
2023-05-16T02:00:03.605Z,10.00
2023-05-16T02:01:04.237Z,10.00
2023-05-16T02:02:04.411Z,10.00
2023-05-16T02:04:04.071Z,10.00
2023-05-16T02:05:04.241Z,10.06
2023-05-16T02:07:04.321Z,10.06
2023-05-16T02:08:04.403Z,10.06
2023-05-16T02:10:04.256Z,10.06
2023-05-16T02:12:04.345Z,10.12
2023-05-16T02:13:03.871Z,10.12
2023-05-16T02:15:03.608Z,10.12
2023-05-16T02:16:04.012Z,10.12
2023-05-16T02:17:03.854Z,10.19
2023-05-16T02:18:03.678Z,10.19
2023-05-16T02:19:04.327Z,10.19
2023-05-16T02:20:05.998Z,10.19
2023-05-16T02:21:05.982Z,10.19
2023-05-16T02:22:03.922Z,10.25
2023-05-16T02:24:03.605Z,10.25
2023-05-16T02:25:04.335Z,10.25
2023-05-16T02:26:04.408Z,10.25
2023-05-16T02:27:04.330Z,10.25
2023-05-16T02:29:03.851Z,10.31
2023-05-16T02:30:03.655Z,10.31
2023-05-16T02:31:04.347Z,10.31
2023-05-16T02:32:03.943Z,10.31
2023-05-16T02:33:04.201Z,10.31
2023-05-16T02:34:03.860Z,10.31
2023-05-16T02:35:05.960Z,10.38
2023-05-16T02:36:04.426Z,10.38
2023-05-16T02:38:04.087Z,10.38
2023-05-16T02:39:03.714Z,10.44
2023-05-16T02:40:04.441Z,10.44
2023-05-16T02:41:05.981Z,10.44
2023-05-16T02:43:04.256Z,10.44
2023-05-16T02:44:03.784Z,10.44
2023-05-16T02:45:03.553Z,10.44
2023-05-16T02:46:04.084Z,10.44
2023-05-16T02:48:04.471Z,10.44
2023-05-16T02:51:04.167Z,10.50
2023-05-16T02:52:04.172Z,10.50
2023-05-16T02:53:03.611Z,10.50
2023-05-16T02:54:03.950Z,10.50
2023-05-16T02:55:20.750Z,10.50
2023-05-16T02:56:04.245Z,10.50
2023-05-16T02:57:04.318Z,10.50
2023-05-16T02:58:03.867Z,10.50
2023-05-16T02:59:03.461Z,10.50
2023-05-16T03:00:04.089Z,10.50
2023-05-16T03:01:03.841Z,10.50
2023-05-16T03:02:03.704Z,10.50
2023-05-16T03:03:04.417Z,10.50
2023-05-16T03:05:04.409Z,10.50
2023-05-16T03:06:03.978Z,10.50
2023-05-16T03:07:04.104Z,10.50
2023-05-16T03:08:04.131Z,10.50
2023-05-16T03:09:03.601Z,10.50
2023-05-16T03:10:03.681Z,10.50
2023-05-16T03:11:04.252Z,10.50
2023-05-16T03:12:04.106Z,10.50
2023-05-16T03:14:03.612Z,10.50
2023-05-16T03:16:04.111Z,10.50
2023-05-16T03:17:03.847Z,10.44
2023-05-16T03:18:03.615Z,10.44
2023-05-16T03:19:04.358Z,10.44
2023-05-16T03:20:03.810Z,10.44
2023-05-16T03:21:04.402Z,10.44
2023-05-16T03:22:04.200Z,10.44
2023-05-16T03:23:03.692Z,10.69
2023-05-16T03:24:03.538Z,10.75
2023-05-16T03:25:03.613Z,11.00
2023-05-16T03:26:04.029Z,10.88
2023-05-16T03:28:04.329Z,10.75
2023-05-16T03:29:03.937Z,10.75
2023-05-16T03:30:03.703Z,10.69
2023-05-16T03:32:03.922Z,10.62
2023-05-16T03:33:04.298Z,10.62
2023-05-16T03:35:03.605Z,10.62
2023-05-16T03:36:04.189Z,10.75
2023-05-16T03:37:03.861Z,10.69
2023-05-16T03:39:03.860Z,10.62
2023-05-16T03:40:03.604Z,10.56
2023-05-16T03:41:04.266Z,10.50
2023-05-16T03:43:03.789Z,10.50
2023-05-16T03:44:04.109Z,10.50
2023-05-16T03:45:04.174Z,10.44
2023-05-16T03:46:04.059Z,10.50
2023-05-16T03:47:04.163Z,10.50
2023-05-16T03:49:03.846Z,10.50
2023-05-16T03:50:04.061Z,10.50
2023-05-16T03:52:03.564Z,10.50
2023-05-16T03:53:04.028Z,10.44
2023-05-16T03:55:03.706Z,10.44
2023-05-16T03:56:04.464Z,10.44
2023-05-16T03:57:03.535Z,10.50
2023-05-16T03:58:04.190Z,10.75
2023-05-16T03:59:03.859Z,10.88
2023-05-16T04:01:03.929Z,10.81
2023-05-16T04:02:04.187Z,10.81
2023-05-16T04:04:03.543Z,10.75
2023-05-16T04:05:04.122Z,10.75
2023-05-16T04:06:04.342Z,10.69
2023-05-16T04:07:03.937Z,10.69
2023-05-16T04:08:04.119Z,10.69
2023-05-16T04:09:03.845Z,10.69
2023-05-16T04:10:03.928Z,10.69
2023-05-16T04:11:03.611Z,10.69
2023-05-16T04:12:04.130Z,10.62
2023-05-16T04:13:04.086Z,10.69
2023-05-16T04:14:04.353Z,10.69
2023-05-16T04:16:04.061Z,10.69
2023-05-16T04:17:03.656Z,10.69
2023-05-16T04:18:04.212Z,10.69
2023-05-16T04:19:04.277Z,10.69
2023-05-16T04:20:04.278Z,10.69
2023-05-16T04:22:04.122Z,10.75
2023-05-16T04:24:03.530Z,10.81
2023-05-16T04:25:04.212Z,10.81
2023-05-16T04:27:04.416Z,10.88
2023-05-16T04:28:04.008Z,10.88
2023-05-16T04:30:04.190Z,10.94
2023-05-16T04:31:03.836Z,10.94
2023-05-16T04:32:03.721Z,11.00
2023-05-16T04:33:04.385Z,11.00
2023-05-16T04:34:04.009Z,11.06
2023-05-16T04:35:03.609Z,11.06
2023-05-16T04:38:04.262Z,11.19
2023-05-16T04:39:04.427Z,11.25
2023-05-16T04:40:03.939Z,11.25
2023-05-16T04:41:03.635Z,11.25
2023-05-16T04:42:04.289Z,11.31
2023-05-16T04:43:03.858Z,11.38
2023-05-16T04:44:03.454Z,11.38
2023-05-16T04:45:04.205Z,11.44
2023-05-16T04:46:03.883Z,11.50
2023-05-16T04:47:04.504Z,11.50
2023-05-16T04:48:04.063Z,11.56
2023-05-16T04:49:04.256Z,11.56
2023-05-16T04:50:04.262Z,11.62
2023-05-16T04:51:03.890Z,11.62
2023-05-16T04:53:04.010Z,11.69
2023-05-16T04:55:04.433Z,11.75
2023-05-16T04:57:03.605Z,11.81
2023-05-16T04:58:04.331Z,11.81
2023-05-16T04:59:03.949Z,11.88
2023-05-16T05:00:04.212Z,11.88
2023-05-16T05:01:03.966Z,11.94
2023-05-16T05:03:04.228Z,12.00
2023-05-16T05:04:03.772Z,12.06
2023-05-16T05:05:04.309Z,12.19
2023-05-16T05:06:04.335Z,12.19
2023-05-16T05:08:04.125Z,12.56
2023-05-16T05:09:03.862Z,12.75
2023-05-16T05:10:04.433Z,13.00
2023-05-16T05:11:04.025Z,13.25
2023-05-16T05:13:04.218Z,13.38
2023-05-16T05:15:03.626Z,13.44
2023-05-16T05:16:04.330Z,13.44
2023-05-16T05:17:04.036Z,13.38
2023-05-16T05:18:03.904Z,13.38
2023-05-16T05:19:03.558Z,13.38
2023-05-16T05:20:04.249Z,13.38
2023-05-16T05:21:04.253Z,13.38
2023-05-16T05:23:03.707Z,13.44
2023-05-16T05:25:03.874Z,14.06
2023-05-16T05:26:03.548Z,14.19
2023-05-16T05:27:04.186Z,14.06
2023-05-16T05:28:04.337Z,13.94
2023-05-16T05:29:06.009Z,13.88
2023-05-16T05:30:04.094Z,13.69
2023-05-16T05:31:04.423Z,13.62
2023-05-16T05:33:03.585Z,13.50
2023-05-16T05:34:04.435Z,13.44
2023-05-16T05:36:04.178Z,13.38
2023-05-16T05:37:03.607Z,13.31
2023-05-16T05:39:03.794Z,13.25
2023-05-16T05:40:04.286Z,13.19
2023-05-16T05:41:03.864Z,13.19
2023-05-16T05:43:04.105Z,13.12
2023-05-16T05:44:03.610Z,13.06
2023-05-16T05:45:04.309Z,13.00
2023-05-16T05:46:04.156Z,13.00
2023-05-16T05:47:04.339Z,13.00
2023-05-16T05:48:03.551Z,12.94
2023-05-16T05:49:04.088Z,12.94
2023-05-16T05:51:04.180Z,12.88
2023-05-16T05:52:04.016Z,12.88
2023-05-16T05:53:04.314Z,12.88
2023-05-16T05:54:04.283Z,12.88
2023-05-16T05:55:04.290Z,12.81
2023-05-16T05:56:03.776Z,12.75
2023-05-16T05:57:03.586Z,12.75
2023-05-16T05:58:06.393Z,12.69
2023-05-16T05:59:04.102Z,12.69
2023-05-16T06:00:03.759Z,12.69
2023-05-16T06:01:04.352Z,12.62
2023-05-16T06:02:03.915Z,12.62
2023-05-16T06:03:04.278Z,12.62
2023-05-16T06:04:03.862Z,12.56
2023-05-16T06:05:04.435Z,12.56
2023-05-16T06:06:03.677Z,12.56
2023-05-16T06:07:04.012Z,12.50
2023-05-16T06:08:04.177Z,12.50
2023-05-16T06:09:03.703Z,12.50
2023-05-16T06:10:04.881Z,12.50
2023-05-16T06:12:03.690Z,12.44
2023-05-16T06:13:04.314Z,12.44
2023-05-16T06:14:04.411Z,12.44
2023-05-16T06:16:04.023Z,12.38
2023-05-16T06:17:03.809Z,12.38
2023-05-16T06:18:04.405Z,12.31
2023-05-16T06:19:04.156Z,12.31
2023-05-16T06:21:04.424Z,12.25
2023-05-16T06:23:03.452Z,12.19
2023-05-16T06:24:04.182Z,12.19
2023-05-16T06:25:03.865Z,12.19
2023-05-16T06:26:04.191Z,12.12
2023-05-16T06:27:04.215Z,12.12
2023-05-16T06:29:04.346Z,12.06
2023-05-16T06:31:04.144Z,12.06
2023-05-16T06:32:03.874Z,12.06
2023-05-16T06:33:03.610Z,12.06
2023-05-16T06:34:04.183Z,12.00
2023-05-16T06:35:03.953Z,12.00
2023-05-16T06:36:04.260Z,12.00
2023-05-16T06:37:03.852Z,12.00
2023-05-16T06:38:06.417Z,12.00
2023-05-16T06:39:04.006Z,12.00
2023-05-16T06:40:04.254Z,12.00
2023-05-16T06:42:04.335Z,12.00
2023-05-16T06:43:04.176Z,12.00
2023-05-16T06:44:03.703Z,12.00
2023-05-16T06:46:03.836Z,12.00
2023-05-16T06:47:03.616Z,11.94
2023-05-16T06:48:04.457Z,11.94
2023-05-16T06:50:03.861Z,11.94
2023-05-16T06:51:03.549Z,11.94
2023-05-16T06:52:04.342Z,11.94
2023-05-16T06:53:03.853Z,11.94
2023-05-16T06:54:04.403Z,11.94
2023-05-16T06:55:03.779Z,11.94
2023-05-16T06:58:04.422Z,11.88
2023-05-16T06:59:03.610Z,11.88
2023-05-16T07:00:04.253Z,11.88
2023-05-16T07:01:04.227Z,11.88
2023-05-16T07:02:03.937Z,11.88
2023-05-16T07:03:03.727Z,11.88
2023-05-16T07:04:06.687Z,11.88
2023-05-16T07:06:03.475Z,11.88
2023-05-16T07:07:04.249Z,11.88
2023-05-16T07:08:06.398Z,11.88
2023-05-16T07:09:03.688Z,11.94
2023-05-16T07:11:03.770Z,11.94
2023-05-16T07:12:04.331Z,11.88
2023-05-16T07:13:03.953Z,11.88
2023-05-16T07:14:03.700Z,12.00
2023-05-16T07:15:03.550Z,11.94
2023-05-16T07:16:04.276Z,11.94
2023-05-16T07:17:04.068Z,11.94
2023-05-16T07:19:04.208Z,11.94
2023-05-16T07:20:05.286Z,11.94
2023-05-16T07:21:04.099Z,11.94
2023-05-16T07:22:03.937Z,11.94
2023-05-16T07:23:03.857Z,11.94
2023-05-16T07:24:04.429Z,11.94
2023-05-16T07:26:03.548Z,11.88
2023-05-16T07:27:04.176Z,11.88
2023-05-16T07:29:04.256Z,11.88
2023-05-16T07:31:04.496Z,11.88
2023-05-16T07:32:04.570Z,11.88
2023-05-16T07:34:04.182Z,12.00
2023-05-16T07:36:15.110Z,12.12
2023-05-16T07:37:04.424Z,12.06
2023-05-16T07:38:04.417Z,12.00
2023-05-16T07:40:04.091Z,11.94
2023-05-16T07:41:03.622Z,11.94
2023-05-16T07:42:03.770Z,11.94
2023-05-16T07:44:03.581Z,12.00
2023-05-16T07:45:04.180Z,12.19
2023-05-16T07:46:03.783Z,12.44
2023-05-16T07:47:04.495Z,12.44
2023-05-16T07:48:04.523Z,12.38
2023-05-16T07:50:04.337Z,12.56
2023-05-16T07:51:04.092Z,12.62
2023-05-16T07:53:04.110Z,12.50
2023-05-16T07:54:03.616Z,12.44
2023-05-16T07:55:04.343Z,12.38
2023-05-16T07:56:04.425Z,12.38
2023-05-16T07:57:04.100Z,12.38
2023-05-16T07:58:03.699Z,12.31
2023-05-16T07:59:04.273Z,12.50
2023-05-16T08:00:04.011Z,12.56
2023-05-16T08:01:04.258Z,12.50
2023-05-16T08:02:04.563Z,12.44
2023-05-16T08:03:04.287Z,12.38
2023-05-16T08:04:04.411Z,12.38
2023-05-16T08:05:04.195Z,12.38
2023-05-16T08:06:03.546Z,12.31
2023-05-16T08:07:04.180Z,12.31
2023-05-16T08:08:03.680Z,12.25
2023-05-16T08:09:04.496Z,12.25
2023-05-16T08:10:04.411Z,12.25
2023-05-16T08:11:04.176Z,12.19
2023-05-16T08:12:04.462Z,12.19
2023-05-16T08:14:03.939Z,12.12
2023-05-16T08:15:04.428Z,12.12
2023-05-16T08:16:03.869Z,12.12
2023-05-16T08:18:04.272Z,12.44
2023-05-16T08:19:03.960Z,12.44
2023-05-16T08:20:03.445Z,12.31
2023-05-16T08:22:04.173Z,12.31
2023-05-16T08:23:03.848Z,12.38
2023-05-16T08:24:04.423Z,12.31
2023-05-16T08:25:04.019Z,12.25
2023-05-16T08:26:04.246Z,12.25
2023-05-16T08:27:03.951Z,12.19
2023-05-16T08:28:04.245Z,12.19
2023-05-16T08:29:03.861Z,12.19
2023-05-16T08:31:04.139Z,12.12
2023-05-16T08:32:03.798Z,12.12
2023-05-16T08:33:04.355Z,12.12
2023-05-16T08:34:04.097Z,12.12
2023-05-16T08:36:03.933Z,12.12
2023-05-16T08:37:04.584Z,12.12
2023-05-16T08:38:03.994Z,12.12
2023-05-16T08:39:04.250Z,12.12
2023-05-16T08:41:03.944Z,12.12
2023-05-16T08:42:04.483Z,12.12
2023-05-16T08:44:03.793Z,12.06
2023-05-16T08:46:03.943Z,12.06
2023-05-16T08:47:04.386Z,12.12
2023-05-16T08:48:03.976Z,12.12
2023-05-16T08:49:03.762Z,12.12
2023-05-16T08:50:04.345Z,12.12
2023-05-16T08:51:03.933Z,12.12
2023-05-16T08:54:04.408Z,12.06
2023-05-16T08:57:03.528Z,12.06
2023-05-16T08:58:04.008Z,12.06
2023-05-16T08:59:04.342Z,12.06
2023-05-16T09:01:04.008Z,12.06
2023-05-16T09:02:03.686Z,12.06
2023-05-16T09:03:04.368Z,12.06
2023-05-16T09:04:03.653Z,12.06
2023-05-16T09:05:04.495Z,12.06
2023-05-16T09:06:04.914Z,12.06
2023-05-16T09:07:03.769Z,12.06
2023-05-16T09:08:04.448Z,12.06
2023-05-16T09:09:04.516Z,12.12
2023-05-16T09:10:04.428Z,12.19
2023-05-16T09:11:04.015Z,12.19
2023-05-16T09:12:04.417Z,12.19
2023-05-16T09:13:06.427Z,12.19
2023-05-16T09:14:04.102Z,12.19
2023-05-16T09:16:04.094Z,12.19
2023-05-16T09:17:04.006Z,12.19
2023-05-16T09:18:03.834Z,12.19
2023-05-16T09:19:03.840Z,12.12
2023-05-16T09:20:03.628Z,12.12
2023-05-16T09:23:03.648Z,12.12
2023-05-16T09:24:04.319Z,12.19
2023-05-16T09:25:04.186Z,12.12
2023-05-16T09:26:03.920Z,12.19
2023-05-16T09:27:04.015Z,12.12
2023-05-16T09:28:04.063Z,12.19
2023-05-16T09:29:04.029Z,12.19
2023-05-16T09:31:04.119Z,12.19
2023-05-16T09:33:06.635Z,12.19
2023-05-16T09:34:03.527Z,12.19
2023-05-16T09:35:04.420Z,12.19
2023-05-16T09:38:04.028Z,12.12
2023-05-16T09:39:03.703Z,12.12
2023-05-16T09:40:04.172Z,12.12
2023-05-16T09:42:04.347Z,12.06
2023-05-16T09:44:04.330Z,12.06
2023-05-16T09:46:03.660Z,12.00
2023-05-16T09:47:04.278Z,12.12
2023-05-16T09:48:03.736Z,12.19
2023-05-16T09:50:04.028Z,12.19
2023-05-16T09:52:04.255Z,12.12
2023-05-16T09:53:04.410Z,12.12
2023-05-16T09:54:04.201Z,12.12
2023-05-16T09:57:04.104Z,12.12
2023-05-16T09:58:03.854Z,12.12
2023-05-16T09:59:04.404Z,12.19
2023-05-16T10:01:03.615Z,12.19
2023-05-16T10:02:04.388Z,12.12
2023-05-16T10:03:05.570Z,12.12
2023-05-16T10:05:04.604Z,12.12
2023-05-16T10:06:04.210Z,12.19
2023-05-16T10:08:04.353Z,12.19
2023-05-16T10:09:04.103Z,12.19
2023-05-16T10:11:04.358Z,12.25
2023-05-16T10:12:03.619Z,12.25
2023-05-16T10:14:05.529Z,12.31
2023-05-16T10:16:04.179Z,12.31
2023-05-16T10:17:03.859Z,12.31
2023-05-16T10:18:04.535Z,12.31
2023-05-16T10:19:04.231Z,12.38
2023-05-16T10:20:03.940Z,12.38
2023-05-16T10:21:03.917Z,12.38
2023-05-16T10:22:03.692Z,12.38
2023-05-16T10:23:04.419Z,12.44
2023-05-16T10:25:04.242Z,12.38
2023-05-16T10:26:04.429Z,12.38
2023-05-16T10:27:03.627Z,12.38
2023-05-16T10:29:04.002Z,12.38
2023-05-16T10:30:03.711Z,12.38
2023-05-16T10:31:04.350Z,12.38
2023-05-16T10:33:04.165Z,12.31
2023-05-16T10:35:04.361Z,12.31
2023-05-16T10:37:04.322Z,12.38
2023-05-16T10:38:04.537Z,12.38
2023-05-16T10:40:04.330Z,12.44
2023-05-16T10:42:04.491Z,12.44
2023-05-16T10:43:03.942Z,12.44
2023-05-16T10:45:05.753Z,12.50
2023-05-16T10:46:04.385Z,12.50
2023-05-16T10:47:04.014Z,12.56
2023-05-16T10:48:03.490Z,12.56
2023-05-16T10:49:04.170Z,12.62
2023-05-16T10:51:04.573Z,12.62
2023-05-16T10:52:04.485Z,12.69
2023-05-16T10:53:04.092Z,12.69
2023-05-16T10:55:04.409Z,12.75
2023-05-16T10:57:04.026Z,12.75
2023-05-16T10:58:03.566Z,12.81
2023-05-16T10:59:04.025Z,12.81
2023-05-16T11:00:03.697Z,12.88
2023-05-16T11:01:04.427Z,12.88
2023-05-16T11:02:03.633Z,12.88
2023-05-16T11:03:04.412Z,12.88
2023-05-16T11:04:03.663Z,12.88
2023-05-16T11:07:04.336Z,12.88
2023-05-16T11:08:03.454Z,12.88
2023-05-16T11:09:04.417Z,12.88
2023-05-16T11:10:03.712Z,12.88
2023-05-16T11:11:03.531Z,12.88
2023-05-16T11:12:04.137Z,12.88
2023-05-16T11:13:04.017Z,13.06
2023-05-16T11:14:03.532Z,13.06
2023-05-16T11:15:04.084Z,13.06
2023-05-16T11:16:03.613Z,13.00
2023-05-16T11:17:04.242Z,12.94
2023-05-16T11:18:03.968Z,12.88
2023-05-16T11:19:03.560Z,12.88
2023-05-16T11:20:04.165Z,12.88
2023-05-16T11:21:03.938Z,12.88
2023-05-16T11:22:03.470Z,12.88
2023-05-16T11:23:04.140Z,12.88
2023-05-16T11:24:03.619Z,12.88
2023-05-16T11:25:04.102Z,12.88
2023-05-16T11:26:03.685Z,12.88
2023-05-16T11:27:06.541Z,12.88
2023-05-16T11:28:03.519Z,12.94
2023-05-16T11:29:04.004Z,12.94
2023-05-16T11:30:04.227Z,12.94
2023-05-16T11:32:04.027Z,13.00
2023-05-16T11:33:03.790Z,13.00
2023-05-16T11:34:03.530Z,13.00
2023-05-16T11:35:04.276Z,13.00
2023-05-16T11:36:11.427Z,13.06
2023-05-16T11:37:04.283Z,13.06
2023-05-16T11:38:04.040Z,13.06
2023-05-16T11:40:04.151Z,13.06
2023-05-16T11:42:04.407Z,13.12
2023-05-16T11:43:05.840Z,13.19
2023-05-16T11:44:04.183Z,13.19
2023-05-16T11:45:03.515Z,13.19
2023-05-16T11:46:03.610Z,13.19
2023-05-16T11:47:03.585Z,13.19
2023-05-16T11:48:03.729Z,13.19
2023-05-16T11:49:03.532Z,13.19
2023-05-16T11:50:03.920Z,13.12
2023-05-16T11:51:04.494Z,13.12
2023-05-16T11:53:03.689Z,13.12
2023-05-16T11:54:04.409Z,13.12
2023-05-16T11:55:04.013Z,13.12
2023-05-16T11:57:04.342Z,13.12
2023-05-16T11:59:04.418Z,13.06
2023-05-16T12:00:03.635Z,13.06
2023-05-16T12:01:04.075Z,13.06
2023-05-16T12:03:04.516Z,13.06
2023-05-16T12:04:03.974Z,13.06
2023-05-16T12:05:04.340Z,13.06
2023-05-16T12:06:04.176Z,13.06
2023-05-16T12:08:04.103Z,13.06
2023-05-16T12:09:03.777Z,13.06
2023-05-16T12:10:03.534Z,13.00
2023-05-16T12:12:03.864Z,13.00
2023-05-16T12:13:03.753Z,13.00
2023-05-16T12:14:03.524Z,12.94
2023-05-16T12:15:03.615Z,12.94
2023-05-16T12:16:03.607Z,12.88
2023-05-16T12:17:04.372Z,12.94
2023-05-16T12:18:04.854Z,12.94
2023-05-16T12:20:04.354Z,13.00
2023-05-16T12:22:03.943Z,13.00
2023-05-16T12:23:04.441Z,13.00
2023-05-16T12:24:06.623Z,13.00
2023-05-16T12:25:04.247Z,13.00
2023-05-16T12:26:04.016Z,13.00
2023-05-16T12:28:04.384Z,13.00
2023-05-16T12:29:03.864Z,13.00
2023-05-16T12:30:03.477Z,13.00
2023-05-16T12:31:04.113Z,13.00
2023-05-16T12:33:06.958Z,13.00
2023-05-16T12:34:04.262Z,13.00
2023-05-16T12:35:03.710Z,12.94
2023-05-16T12:36:04.268Z,12.94
2023-05-16T12:38:04.426Z,12.94
2023-05-16T12:39:03.981Z,12.94
2023-05-16T12:40:04.028Z,12.88
2023-05-16T12:41:03.549Z,12.88
2023-05-16T12:42:03.467Z,12.88
2023-05-16T12:43:03.940Z,12.81
2023-05-16T12:45:04.106Z,12.81
2023-05-16T12:46:03.718Z,12.81
2023-05-16T12:48:03.894Z,12.81
2023-05-16T12:49:04.435Z,12.81
2023-05-16T12:50:04.098Z,12.81
2023-05-16T12:51:03.629Z,12.81
2023-05-16T12:52:03.455Z,12.81
2023-05-16T12:53:04.109Z,12.81
2023-05-16T12:54:10.044Z,12.81
2023-05-16T12:55:04.335Z,12.81
2023-05-16T12:58:04.085Z,12.75
2023-05-16T13:00:04.276Z,12.75
2023-05-16T13:01:03.593Z,12.75
2023-05-16T13:02:03.664Z,12.75
2023-05-16T13:03:03.639Z,12.75
2023-05-16T13:04:03.972Z,12.75
2023-05-16T13:05:03.940Z,12.69
2023-05-16T13:06:04.483Z,12.69
2023-05-16T13:09:04.265Z,12.75
2023-05-16T13:11:04.502Z,12.75
2023-05-16T13:12:04.504Z,12.69
2023-05-16T13:13:03.945Z,12.69
2023-05-16T13:15:04.265Z,12.69
2023-05-16T13:16:03.861Z,12.62
2023-05-16T13:18:04.136Z,12.62
2023-05-16T13:19:03.884Z,12.62
2023-05-16T13:20:03.540Z,12.62
2023-05-16T13:21:04.034Z,12.62
2023-05-16T13:22:03.549Z,12.62
2023-05-16T13:23:04.259Z,12.62
2023-05-16T13:24:03.944Z,12.56
2023-05-16T13:25:03.616Z,12.56
2023-05-16T13:26:03.633Z,12.62
2023-05-16T13:27:04.098Z,12.56
2023-05-16T13:28:04.534Z,12.62
2023-05-16T13:29:04.265Z,12.56
2023-05-16T13:30:03.941Z,12.62
2023-05-16T13:31:03.619Z,12.62
2023-05-16T13:32:03.867Z,12.62
2023-05-16T13:33:04.540Z,12.62
2023-05-16T13:35:03.862Z,12.62
2023-05-16T13:36:04.342Z,12.62
2023-05-16T13:37:03.858Z,12.62
2023-05-16T13:38:03.620Z,12.69
2023-05-16T13:39:04.520Z,12.69
2023-05-16T13:40:04.176Z,12.69
2023-05-16T13:41:03.611Z,12.75
2023-05-16T13:42:03.615Z,12.75
2023-05-16T13:43:04.165Z,12.75
2023-05-16T13:45:04.330Z,12.69
2023-05-16T13:47:04.186Z,12.69
2023-05-16T13:49:03.636Z,12.69
2023-05-16T13:50:04.414Z,12.75
2023-05-16T13:51:04.133Z,12.75
2023-05-16T13:53:04.340Z,12.88
2023-05-16T13:55:04.328Z,12.94
2023-05-16T13:56:03.941Z,12.94
2023-05-16T13:58:04.347Z,13.00
2023-05-16T13:59:06.760Z,13.06
2023-05-16T14:00:27.883Z,13.12
2023-05-16T14:01:04.123Z,13.19
2023-05-16T14:02:03.619Z,13.25
2023-05-16T14:03:04.275Z,13.31
2023-05-16T14:05:03.787Z,13.38
2023-05-16T14:06:04.342Z,13.44
2023-05-16T14:07:03.883Z,13.50
2023-05-16T14:08:04.412Z,13.56
2023-05-16T14:09:04.088Z,13.62
2023-05-16T14:10:03.783Z,13.69
2023-05-16T14:11:04.258Z,13.69
2023-05-16T14:12:03.770Z,13.75
2023-05-16T14:13:04.251Z,13.75
2023-05-16T14:14:04.039Z,13.81
2023-05-16T14:15:03.624Z,13.88
2023-05-16T14:16:04.270Z,13.94
2023-05-16T14:18:03.794Z,14.00
2023-05-16T14:19:04.428Z,14.06
2023-05-16T14:20:03.926Z,14.06
2023-05-16T14:22:04.165Z,14.06
2023-05-16T14:23:03.602Z,14.06
2023-05-16T14:24:04.162Z,14.12
2023-05-16T14:25:03.692Z,14.12
2023-05-16T14:26:04.040Z,14.12
2023-05-16T14:27:04.161Z,14.12
2023-05-16T14:28:03.600Z,14.12
2023-05-16T14:29:04.183Z,14.12
2023-05-16T14:30:03.785Z,14.12
2023-05-16T14:31:04.443Z,14.12
2023-05-16T14:32:04.355Z,14.12
2023-05-16T14:33:03.826Z,14.19
2023-05-16T14:34:03.808Z,14.19
2023-05-16T14:35:04.351Z,14.19
2023-05-16T14:36:05.234Z,14.19
2023-05-16T14:38:04.903Z,14.25
2023-05-16T14:39:03.687Z,14.25
2023-05-16T14:41:04.326Z,14.31
2023-05-16T14:42:04.620Z,14.31
2023-05-16T14:43:03.625Z,14.31
2023-05-16T14:44:03.682Z,14.31
2023-05-16T14:45:04.369Z,14.31
2023-05-16T14:47:04.185Z,14.38
2023-05-16T14:48:04.990Z,14.38
2023-05-16T14:49:04.326Z,14.38
2023-05-16T14:50:04.015Z,14.44
2023-05-16T14:51:03.536Z,14.38
2023-05-16T14:52:04.128Z,14.38
2023-05-16T14:53:03.620Z,14.38
2023-05-16T14:54:04.263Z,14.38
2023-05-16T14:55:03.940Z,14.38
2023-05-16T14:57:04.116Z,14.31
2023-05-16T14:58:03.858Z,14.25
2023-05-16T14:59:03.620Z,14.31
2023-05-16T15:00:03.740Z,14.31
2023-05-16T15:01:04.349Z,14.31
2023-05-16T15:03:03.706Z,14.38
2023-05-16T15:04:04.417Z,14.38
2023-05-16T15:05:04.204Z,14.38
2023-05-16T15:06:03.848Z,14.38
2023-05-16T15:08:04.162Z,14.38
2023-05-16T15:09:03.649Z,14.38
2023-05-16T15:10:03.752Z,14.38
2023-05-16T15:11:04.415Z,14.38
2023-05-16T15:13:03.741Z,14.38
2023-05-16T15:15:04.338Z,14.38
2023-05-16T15:16:04.229Z,14.38
2023-05-16T15:17:04.069Z,14.38
2023-05-16T15:18:04.030Z,14.38
2023-05-16T15:19:03.786Z,14.38
2023-05-16T15:20:03.878Z,14.38
2023-05-16T15:21:04.443Z,14.38
2023-05-16T15:22:04.337Z,14.38
2023-05-16T15:24:04.312Z,14.44
2023-05-16T15:25:04.087Z,14.44
2023-05-16T15:27:04.248Z,14.44
2023-05-16T15:28:04.098Z,14.44
2023-05-16T15:30:04.372Z,14.50
2023-05-16T15:31:04.197Z,14.44
2023-05-16T15:33:04.472Z,14.50
2023-05-16T15:34:04.246Z,14.50
2023-05-16T15:36:04.330Z,14.50
2023-05-16T15:37:04.003Z,14.50
2023-05-16T15:38:04.477Z,14.44
2023-05-16T15:40:03.940Z,14.50
2023-05-16T15:41:15.656Z,14.50
2023-05-16T15:42:10.421Z,14.50
2023-05-16T15:43:04.171Z,14.56
2023-05-16T15:44:03.814Z,14.56
2023-05-16T15:46:03.611Z,14.62
2023-05-16T15:47:04.169Z,14.56
2023-05-16T15:48:03.920Z,14.56
2023-05-16T15:49:03.547Z,14.56
2023-05-16T15:50:04.265Z,14.56
2023-05-16T15:51:03.790Z,14.62
2023-05-16T15:53:04.336Z,14.50
2023-05-16T15:54:03.780Z,14.50
2023-05-16T15:56:04.370Z,14.56
2023-05-16T15:57:03.935Z,14.56
2023-05-16T15:59:04.488Z,14.50
2023-05-16T16:00:03.691Z,14.50
2023-05-16T16:01:04.417Z,14.50
2023-05-16T16:02:04.258Z,14.50
2023-05-16T16:03:03.672Z,14.50
2023-05-16T16:04:04.087Z,14.50
2023-05-16T16:05:04.265Z,14.50
2023-05-16T16:06:04.032Z,14.50
2023-05-16T16:07:03.806Z,14.50
2023-05-16T16:09:04.281Z,14.56